Time;durP1;ratioP1;P1;durP2;ratioP2;P2;SDS_P1;SDS_P2;PMS_P1;PMS_P2;Temp;Humidity;BMP_temperature;BMP_pressure;BME280_temperature;BME280_humidity;BME280_pressure;Samples;Min_cycle;Max_cycle;Signal;HPM_P1;HPM_P2
2023/07/23 00:01:02;;;;;;;7.80;7.00;;;;;;;16.66;100.00;97280.71;110204;1242;59695;-70
2023/07/23 00:03:46;;;;;;;7.40;6.20;;;;;;;16.66;100.00;97285.17;110184;1241;71766;-71
2023/07/23 00:06:17;;;;;;;7.90;6.90;;;;;;;16.69;100.00;97288.41;110234;1242;69405;-69
2023/07/23 00:08:46;;;;;;;7.70;6.90;;;;;;;16.64;100.00;97283.80;110211;1240;68243;-71
2023/07/23 00:11:17;;;;;;;7.70;7.00;;;;;;;16.61;100.00;97283.91;110169;1242;59744;-71
2023/07/23 00:13:47;;;;;;;8.40;6.70;;;;;;;16.61;100.00;97288.16;110173;1245;59736;-70
2023/07/23 00:16:17;;;;;;;7.80;6.10;;;;;;;16.60;100.00;97292.83;110155;1243;72006;-70
2023/07/23 00:18:49;;;;;;;7.20;6.50;;;;;;;16.58;100.00;97297.21;110215;1241;68695;-69
2023/07/23 00:21:20;;;;;;;7.00;6.30;;;;;;;16.57;100.00;97300.69;110207;1244;69224;-70
2023/07/23 00:23:51;;;;;;;7.70;6.50;;;;;;;16.53;100.00;97297.69;110219;1241;59731;-67
2023/07/23 00:26:22;;;;;;;7.40;6.70;;;;;;;16.49;100.00;97297.73;110152;1246;59666;-68
2023/07/23 00:28:54;;;;;;;8.30;7.00;;;;;;;16.46;100.00;97296.45;110191;1241;71848;-67
2023/07/23 00:31:25;;;;;;;7.50;6.60;;;;;;;16.44;100.00;97290.55;110217;1242;69203;-68
2023/07/23 00:33:58;;;;;;;9.80;7.30;;;;;;;16.42;100.00;97286.82;110185;1241;69113;-68
2023/07/23 00:36:30;;;;;;;7.90;6.40;;;;;;;16.40;100.00;97287.88;110175;1242;59743;-71
2023/07/23 00:39:02;;;;;;;8.00;6.80;;;;;;;16.39;100.00;97289.94;110250;1242;59678;-70
2023/07/23 00:41:37;;;;;;;7.00;6.30;;;;;;;16.41;100.00;97290.07;110138;1242;70529;-69
2023/07/23 00:44:06;;;;;;;7.90;6.00;;;;;;;16.44;100.00;97297.18;110151;1245;68763;-70
2023/07/23 00:46:39;;;;;;;9.50;7.00;;;;;;;16.47;100.00;97295.80;110111;1245;68516;-69
2023/07/23 00:49:11;;;;;;;7.10;6.40;;;;;;;16.50;100.00;97290.41;110206;1244;59714;-70
2023/07/23 00:51:42;;;;;;;8.90;7.60;;;;;;;16.52;100.00;97283.73;110221;1242;59695;-71
2023/07/23 00:54:13;;;;;;;8.40;6.40;;;;;;;16.53;100.00;97276.71;110191;1242;71190;-69
2023/07/23 00:56:54;;;;;;;8.10;6.70;;;;;;;16.57;100.00;97276.20;110119;1242;69460;-69
2023/07/23 00:59:24;;;;;;;7.60;6.80;;;;;;;16.66;100.00;97277.25;110163;1245;68492;-68
2023/07/23 01:01:58;;;;;;;7.90;6.00;;;;;;;16.61;100.00;97281.30;110212;1242;60047;-70
2023/07/23 01:04:29;;;;;;;7.10;6.30;;;;;;;16.65;100.00;97283.87;110226;1242;59735;-70
2023/07/23 01:07:05;;;;;;;7.50;6.10;;;;;;;16.77;100.00;97283.58;110223;1242;70741;-71
2023/07/23 01:09:37;;;;;;;7.80;7.00;;;;;;;16.80;100.00;97279.90;110216;1243;69777;-70
2023/07/23 01:12:09;;;;;;;8.70;7.20;;;;;;;16.78;100.00;97274.79;110180;1245;69178;-70
2023/07/23 01:14:47;;;;;;;7.50;6.50;;;;;;;16.78;100.00;97271.62;110209;1242;59693;-70
2023/07/23 01:17:20;;;;;;;8.60;7.40;;;;;;;16.79;100.00;97274.20;110153;1240;59679;-68
2023/07/23 01:20:07;;;;;;;10.20;8.70;;;;;;;16.83;100.00;97274.77;110179;1242;70563;-69
2023/07/23 01:22:37;;;;;;;8.10;7.10;;;;;;;16.82;100.00;97278.13;110153;1242;68600;-69
2023/07/23 01:25:07;;;;;;;8.00;7.10;;;;;;;16.84;100.00;97283.44;110159;1248;69366;-68
2023/07/23 01:27:39;;;;;;;8.60;6.60;;;;;;;16.86;100.00;97279.48;110156;1243;59738;-70
2023/07/23 01:30:11;;;;;;;7.50;6.60;;;;;;;16.90;100.00;97285.28;110122;1244;59703;-69
2023/07/23 01:32:42;;;;;;;8.20;6.60;;;;;;;16.92;100.00;97279.06;110145;1240;70889;-69
2023/07/23 01:35:14;;;;;;;9.10;7.60;;;;;;;16.94;100.00;97275.11;110114;1246;69069;-70
2023/07/23 01:37:47;;;;;;;9.80;7.50;;;;;;;16.96;100.00;97271.97;110174;1243;69120;-71
2023/07/23 01:40:19;;;;;;;7.00;6.30;;;;;;;16.97;100.00;97268.38;110143;1244;59744;-69
2023/07/23 01:42:50;;;;;;;9.20;6.80;;;;;;;16.97;100.00;97267.52;110165;1242;59684;-70
2023/07/23 01:45:23;;;;;;;7.30;6.60;;;;;;;16.96;100.00;97270.36;110203;1247;69662;-70
2023/07/23 01:47:55;;;;;;;8.00;7.20;;;;;;;16.97;100.00;97279.85;110168;1242;69351;-71
2023/07/23 01:50:24;;;;;;;;;;;;;;;16.99;100.00;97289.52;110350;1240;69128;-70
2023/07/23 01:52:56;;;;;;;6.60;5.90;;;;;;;17.02;100.00;97300.95;110202;1245;59681;-70
2023/07/23 01:55:30;;;;;;;7.80;6.50;;;;;;;17.02;100.00;97307.55;110221;1242;59658;-71
2023/07/23 01:58:00;;;;;;;7.00;5.70;;;;;;;16.92;100.00;97307.25;110143;1242;71376;-69
2023/07/23 02:00:33;;;;;;;7.10;5.90;;;;;;;16.89;100.00;97307.70;110165;1243;69382;-70
2023/07/23 02:03:06;;;;;;;7.70;5.80;;;;;;;16.93;100.00;97313.98;110161;1242;69272;-70
2023/07/23 02:05:42;;;;;;;7.60;5.90;;;;;;;16.88;100.00;97314.32;110199;1242;59750;-69
2023/07/23 02:08:15;;;;;;;6.50;5.60;;;;;;;16.92;100.00;97311.64;110299;1242;59716;-71
2023/07/23 02:10:46;;;;;;;7.00;5.80;;;;;;;16.93;100.00;97307.35;110232;1242;71513;-70
2023/07/23 02:13:18;;;;;;;7.00;6.10;;;;;;;16.82;100.00;97308.46;110230;1242;69221;-68
2023/07/23 02:15:50;;;;;;;6.80;6.00;;;;;;;16.76;100.00;97307.77;110222;1243;69246;-69
2023/07/23 02:18:21;;;;;;;7.60;6.40;;;;;;;16.69;100.00;97310.86;110217;1242;59694;-71
2023/07/23 02:20:52;;;;;;;7.60;6.80;;;;;;;16.65;100.00;97307.63;110228;1241;59726;-70
2023/07/23 02:23:26;;;;;;;7.60;6.80;;;;;;;16.60;100.00;97304.24;110241;1247;70656;-70
2023/07/23 02:25:58;;;;;;;7.40;6.60;;;;;;;16.53;100.00;97309.45;110258;1243;69473;-71
2023/07/23 02:28:32;;;;;;;9.00;7.10;;;;;;;16.51;100.00;97310.21;110214;1246;67582;-70
2023/07/23 02:31:05;;;;;;;7.60;6.70;;;;;;;16.49;100.00;97307.02;110174;1245;59738;-69
2023/07/23 02:33:36;;;;;;;8.90;7.30;;;;;;;16.47;100.00;97301.80;110227;1242;59686;-70
2023/07/23 02:36:09;;;;;;;7.40;6.70;;;;;;;16.45;100.00;97297.27;110268;1242;71453;-68
2023/07/23 02:38:43;;;;;;;8.30;7.00;;;;;;;16.43;100.00;97293.38;110189;1241;69276;-70
2023/07/23 02:41:14;;;;;;;8.20;7.40;;;;;;;16.43;100.00;97290.61;110152;1244;68561;-69
2023/07/23 02:43:47;;;;;;;7.70;6.90;;;;;;;16.40;100.00;97290.89;110219;1242;59712;-69
2023/07/23 02:46:20;;;;;;;7.70;6.50;;;;;;;16.38;100.00;97291.82;110225;1245;59682;-69
2023/07/23 02:48:52;;;;;;;8.40;7.40;;;;;;;16.36;100.00;97292.16;110232;1242;70839;-69
2023/07/23 02:51:26;;;;;;;7.40;6.70;;;;;;;16.35;100.00;97291.39;110227;1242;68248;-69
2023/07/23 02:54:00;;;;;;;6.80;5.80;;;;;;;16.36;100.00;97292.53;110125;1245;69282;-70
2023/07/23 02:56:31;;;;;;;7.50;6.60;;;;;;;16.35;100.00;97292.98;110229;1242;59687;-70
2023/07/23 02:59:05;;;;;;;7.40;5.80;;;;;;;16.36;100.00;97291.86;110162;1241;59667;-69
2023/07/23 03:01:36;;;;;;;6.90;6.00;;;;;;;16.37;100.00;97289.64;110187;1244;70643;-69
2023/07/23 03:04:06;;;;;;;7.00;5.70;;;;;;;16.38;100.00;97290.73;110124;1241;68552;-69
2023/07/23 03:06:39;;;;;;;7.60;6.10;;;;;;;16.46;100.00;97290.64;110230;1242;69194;-71
2023/07/23 03:09:13;;;;;;;8.10;5.90;;;;;;;16.43;100.00;97290.23;110168;1245;58983;-71
2023/07/23 03:11:48;;;;;;;6.80;6.10;;;;;;;16.41;100.00;97289.41;110271;1242;59698;-71
2023/07/23 03:14:17;;;;;;;7.00;6.30;;;;;;;16.41;100.00;97292.58;110246;1240;71168;-70
2023/07/23 03:16:49;;;;;;;7.20;6.30;;;;;;;16.41;100.00;97298.41;110194;1252;69124;-70
2023/07/23 03:19:21;;;;;;;8.00;6.90;;;;;;;16.40;100.00;97300.08;110126;1241;69358;-70
2023/07/23 03:21:54;;;;;;;7.20;6.10;;;;;;;16.39;100.00;97301.38;110218;1242;59740;-70
2023/07/23 03:24:26;;;;;;;5.90;5.20;;;;;;;16.39;100.00;97308.77;110228;1247;59740;-69
2023/07/23 03:26:59;;;;;;;6.80;6.00;;;;;;;16.38;100.00;97315.20;110185;1242;70660;-71
2023/07/23 03:29:30;;;;;;;8.10;6.80;;;;;;;16.38;100.00;97326.77;110151;1245;68285;-69
2023/07/23 03:32:01;;;;;;;8.60;7.50;;;;;;;16.37;100.00;97337.45;110172;1242;70347;-69
2023/07/23 03:34:31;;;;;;;8.80;6.60;;;;;;;16.33;100.00;97342.98;110161;1246;59735;-69
2023/07/23 03:37:03;;;;;;;8.30;7.00;;;;;;;16.31;100.00;97343.64;110172;1245;59733;-70
2023/07/23 03:39:34;;;;;;;7.00;6.20;;;;;;;16.26;100.00;97359.05;110195;1245;71343;-69
2023/07/23 03:42:06;;;;;;;7.10;6.40;;;;;;;16.30;100.00;97375.73;109445;1242;899414;-69
2023/07/23 03:44:36;;;;;;;8.70;6.70;;;;;;;16.31;100.00;97376.02;110160;1241;68532;-69
2023/07/23 03:47:09;;;;;;;8.30;6.70;;;;;;;16.33;100.00;97368.86;110231;1242;59758;-70
2023/07/23 03:49:41;;;;;;;7.20;5.70;;;;;;;16.36;100.00;97374.66;110251;1242;59663;-69
2023/07/23 03:52:11;;;;;;;7.20;6.50;;;;;;;16.39;100.00;97373.38;110247;1248;71386;-69
2023/07/23 03:54:42;;;;;;;8.10;7.10;;;;;;;16.40;100.00;97372.46;110241;1242;69126;-68
2023/07/23 03:57:13;;;;;;;7.30;6.50;;;;;;;16.45;100.00;97381.89;110150;1245;68607;-67
2023/07/23 03:59:45;;;;;;;7.00;6.20;;;;;;;16.48;100.00;97384.69;110220;1243;59680;-69
2023/07/23 04:02:16;;;;;;;8.10;7.20;;;;;;;16.51;100.00;97383.70;110233;1241;59731;-71
2023/07/23 04:04:48;;;;;;;7.60;6.80;;;;;;;16.53;100.00;97388.42;110233;1241;71423;-70
2023/07/23 04:07:19;;;;;;;7.90;6.20;;;;;;;16.56;100.00;97383.11;110151;1245;68508;-70
2023/07/23 04:09:49;;;;;;;9.30;7.80;;;;;;;16.58;100.00;97379.00;110183;1242;69198;-69
2023/07/23 04:12:22;;;;;;;9.30;7.60;;;;;;;16.59;100.00;97381.00;110207;1247;59669;-70
2023/07/23 04:14:54;;;;;;;8.00;7.20;;;;;;;16.67;100.00;97379.52;110176;1245;59759;-69
2023/07/23 04:17:25;;;;;;;8.00;7.20;;;;;;;16.72;100.00;97374.09;110217;1243;71886;-70
2023/07/23 04:19:54;;;;;;;10.50;7.80;;;;;;;16.77;100.00;97370.45;110193;1243;68435;-68
2023/07/23 04:22:25;;;;;;;8.00;7.20;;;;;;;16.83;100.00;97371.89;110221;1243;69997;-70
2023/07/23 04:24:55;;;;;;;8.80;7.90;;;;;;;16.91;100.00;97369.85;110206;1241;59682;-69
2023/07/23 04:27:24;;;;;;;7.00;6.20;;;;;;;17.12;100.00;97371.77;110198;1242;59746;-70
2023/07/23 04:29:55;;;;;;;8.40;7.60;;;;;;;17.24;100.00;97370.67;110106;1252;70330;-69
2023/07/23 04:32:26;;;;;;;8.60;6.80;;;;;;;17.34;100.00;97366.27;110181;1249;68384;-69
2023/07/23 04:34:56;;;;;;;8.00;7.20;;;;;;;17.38;100.00;97373.60;110165;1242;69631;-69
2023/07/23 04:37:25;;;;;;;;;;;;;;;17.42;100.00;97375.61;110233;1243;59699;-70
2023/07/23 04:39:55;;;;;;;7.90;7.20;;;;;;;17.47;100.00;97373.71;110194;1241;59747;-69
2023/07/23 04:42:25;;;;;;;7.90;7.10;;;;;;;17.49;100.00;97371.00;110205;1240;71350;-71
2023/07/23 04:44:55;;;;;;;;;;;;;;;17.50;100.00;97369.31;110257;1243;69267;-70
2023/07/23 04:47:25;;;;;;;7.00;6.30;;;;;;;17.56;100.00;97366.59;110208;1243;69297;-70
2023/07/23 04:49:57;;;;;;;7.60;6.80;;;;;;;17.65;100.00;97370.44;110229;1242;59712;-68
2023/07/23 04:52:28;;;;;;;8.30;7.00;;;;;;;17.75;100.00;97373.83;110171;1243;59689;-70
2023/07/23 04:54:58;;;;;;;7.50;6.80;;;;;;;17.87;100.00;97371.73;110215;1243;70362;-69
2023/07/23 04:57:29;;;;;;;8.80;7.60;;;;;;;17.96;100.00;97377.88;110185;1243;69480;-70
2023/07/23 04:59:58;;;;;;;;;;;;;;;18.01;100.00;97380.33;110146;1243;69150;-68
2023/07/23 05:02:29;;;;;;;7.80;6.40;;;;;;;18.08;100.00;97380.89;110196;1241;59658;-70
2023/07/23 05:04:59;;;;;;;7.80;7.00;;;;;;;18.12;100.00;97379.39;110209;1242;59675;-70
2023/07/23 05:07:28;;;;;;;8.10;7.30;;;;;;;18.14;100.00;97375.29;110147;1241;72446;-68
2023/07/23 05:09:58;;;;;;;7.70;6.90;;;;;;;18.13;100.00;97378.44;110195;1240;68674;-69
2023/07/23 05:12:28;;;;;;;8.00;7.00;;;;;;;18.17;100.00;97381.15;110199;1240;68970;-70
2023/07/23 05:15:10;;;;;;;7.80;7.00;;;;;;;18.23;100.00;97388.31;110142;1242;59736;-70
2023/07/23 05:17:41;;;;;;;7.10;6.40;;;;;;;18.28;100.00;97387.21;110185;1242;59671;-70
2023/07/23 05:20:10;;;;;;;7.20;6.30;;;;;;;18.34;100.00;97389.23;110226;1243;70639;-70
2023/07/23 05:22:40;;;;;;;;;;;;;;;18.36;100.00;97395.11;110290;1243;69583;-70
2023/07/23 05:25:10;;;;;;;8.50;7.20;;;;;;;18.40;100.00;97398.33;110209;1242;68511;-69
2023/07/23 05:27:40;;;;;;;7.80;6.60;;;;;;;18.47;100.00;97397.02;110192;1242;59742;-71
2023/07/23 05:30:11;;;;;;;6.90;6.20;;;;;;;18.56;100.00;97401.19;110178;1242;59741;-69
2023/07/23 05:32:42;;;;;;;9.10;7.40;;;;;;;18.67;100.00;97400.80;110134;1242;71356;-69
2023/07/23 05:35:12;;;;;;;8.90;6.20;;;;;;;18.75;100.00;97402.05;110184;1242;68600;-68
2023/07/23 05:37:42;;;;;;;9.30;6.80;;;;;;;18.83;100.00;97411.09;110187;1243;69332;-69
2023/07/23 05:40:11;;;;;;;;;;;;;;;18.95;100.00;97415.85;110238;1242;59743;-70
2023/07/23 05:42:40;;;;;;;7.40;6.70;;;;;;;19.05;100.00;97419.37;110224;1242;59705;-71
2023/07/23 05:45:10;;;;;;;7.50;6.80;;;;;;;19.17;100.00;97427.92;110230;1249;71490;-71
2023/07/23 05:47:39;;;;;;;7.40;6.50;;;;;;;19.33;100.00;97435.17;110215;1241;69217;-69
2023/07/23 05:50:10;;;;;;;6.10;5.40;;;;;;;19.50;100.00;97433.18;110259;1241;69264;-68
2023/07/23 05:52:40;;;;;;;6.30;5.70;;;;;;;19.74;100.00;97436.58;110249;1242;59670;-69
2023/07/23 05:55:09;;;;;;;;;;;;;;;19.97;100.00;97439.66;110247;1249;59688;-69
2023/07/23 05:57:39;;;;;;;7.30;5.90;;;;;;;20.16;100.00;97440.27;110240;1242;71587;-70
2023/07/23 06:00:08;;;;;;;8.20;7.00;;;;;;;20.29;100.00;97441.15;110268;1242;69735;-69
2023/07/23 06:02:40;;;;;;;7.50;6.80;;;;;;;20.29;100.00;97438.83;110193;1242;69541;-69
2023/07/23 06:05:10;;;;;;;7.50;6.80;;;;;;;20.26;100.00;97441.09;110219;1243;59766;-69
2023/07/23 06:07:39;;;;;;;6.70;5.90;;;;;;;20.34;100.00;97437.15;110270;1243;59694;-69
2023/07/23 06:10:09;;;;;;;6.80;6.10;;;;;;;20.40;100.00;97435.27;110259;1242;71234;-70
2023/07/23 06:12:39;;;;;;;7.30;6.30;;;;;;;20.40;100.00;97440.58;110281;1242;69432;-71
2023/07/23 06:15:09;;;;;;;6.70;6.10;;;;;;;20.37;100.00;97447.66;110210;1241;69893;-70
2023/07/23 06:17:39;;;;;;;7.10;6.30;;;;;;;20.53;100.00;97454.52;110222;1242;59688;-69
2023/07/23 06:20:08;;;;;;;6.70;6.00;;;;;;;20.71;100.00;97455.66;110252;1242;59748;-67
2023/07/23 06:22:37;;;;;;;6.90;6.10;;;;;;;21.01;99.79;97456.15;110265;1243;71304;-69
2023/07/23 06:25:07;;;;;;;6.20;5.60;;;;;;;21.48;94.86;97452.14;110328;1242;69817;-70
2023/07/23 06:27:37;;;;;;;6.20;5.70;;;;;;;21.97;92.33;97457.17;110254;1242;69926;-70
2023/07/23 06:30:07;;;;;;;5.60;5.10;;;;;;;22.59;90.09;97455.45;110251;1247;59696;-68
2023/07/23 06:32:36;;;;;;;6.10;5.10;;;;;;;23.20;87.93;97450.05;110275;1241;59732;-70
2023/07/23 06:35:10;;;;;;;7.60;5.50;;;;;;;23.62;84.55;97452.46;110207;1241;71864;-69
2023/07/23 06:37:40;;;;;;;6.40;5.10;;;;;;;23.64;78.98;97453.98;110197;1242;69337;-70
2023/07/23 06:40:11;;;;;;;7.90;5.70;;;;;;;23.66;78.26;97454.91;110198;1242;69250;-68
2023/07/23 06:42:40;;;;;;;5.20;4.50;;;;;;;23.88;76.67;97452.91;110189;1242;59689;-67
2023/07/23 06:45:09;;;;;;;;;;;;;;;24.22;76.37;97456.41;110227;1240;59662;-69
2023/07/23 06:47:39;;;;;;;5.20;4.70;;;;;;;24.39;76.18;97454.67;110159;1241;70661;-68
2023/07/23 06:50:09;;;;;;;5.70;4.90;;;;;;;24.47;75.57;97456.12;110219;1242;69231;-70
2023/07/23 06:52:38;;;;;;;6.50;4.70;;;;;;;24.55;76.36;97458.80;110150;1242;69767;-68
2023/07/23 06:55:08;;;;;;;5.90;5.30;;;;;;;24.51;74.76;97457.16;110179;1242;59737;-69
2023/07/23 06:57:41;;;;;;;6.00;5.30;;;;;;;24.27;73.64;97458.01;110199;1241;59676;-70
2023/07/23 07:00:12;;;;;;;7.40;5.80;;;;;;;24.13;74.46;97459.60;110209;1240;71934;-68
2023/07/23 07:02:42;;;;;;;7.80;5.60;;;;;;;23.80;74.52;97461.27;110217;1242;69809;-69
2023/07/23 07:05:11;;;;;;;6.10;5.30;;;;;;;23.71;75.48;97467.52;110171;1242;69838;-70
2023/07/23 07:07:41;;;;;;;5.80;4.60;;;;;;;23.75;75.55;97466.82;110200;1242;59671;-68
2023/07/23 07:10:11;;;;;;;5.30;4.80;;;;;;;23.81;75.46;97466.63;110213;1242;59698;-69
2023/07/23 07:12:40;;;;;;;6.20;5.00;;;;;;;23.54;76.36;97464.69;110174;1243;70570;-68
2023/07/23 07:15:10;;;;;;;5.80;5.20;;;;;;;23.60;77.62;97463.48;110219;1242;69910;-71
2023/07/23 07:17:39;;;;;;;;;;;;;;;23.76;77.86;97463.23;110241;1242;69878;-71
2023/07/23 07:20:09;;;;;;;6.20;5.50;;;;;;;23.77;77.09;97465.69;110150;1240;59662;-70
2023/07/23 07:22:39;;;;;;;6.10;5.40;;;;;;;23.75;73.88;97465.84;110226;1242;59734;-68
2023/07/23 07:25:09;;;;;;;6.10;5.00;;;;;;;23.60;73.11;97461.13;110257;1242;71898;-70
2023/07/23 07:27:38;;;;;;;6.00;5.40;;;;;;;24.02;71.48;97467.54;110219;1242;69863;-71
2023/07/23 07:30:08;;;;;;;;;;;;;;;24.40;71.19;97465.41;110232;1245;68686;-69
2023/07/23 07:32:36;;;;;;;6.60;4.30;;;;;;;24.78;69.02;97469.69;110262;1242;59767;-71
2023/07/23 07:35:06;;;;;;;5.40;4.60;;;;;;;25.17;67.80;97468.94;110256;1243;59688;-69
2023/07/23 07:37:35;;;;;;;6.20;5.20;;;;;;;25.32;67.60;97470.65;110252;1245;71763;-70
2023/07/23 07:40:05;;;;;;;5.70;4.90;;;;;;;25.05;66.24;97479.97;110233;1243;70277;-69
2023/07/23 07:42:35;;;;;;;5.00;4.50;;;;;;;25.34;66.45;97476.05;110179;1240;69733;-71
2023/07/23 07:45:04;;;;;;;;;;;;;;;26.09;64.42;97473.86;110206;1241;59740;-72
2023/07/23 07:47:33;;;;;;;5.70;5.10;;;;;;;26.28;64.23;97470.69;110229;1242;59699;-71
2023/07/23 07:50:04;;;;;;;6.50;5.40;;;;;;;26.61;63.05;97472.48;110221;1241;71404;-70
2023/07/23 07:52:33;;;;;;;5.90;4.60;;;;;;;26.72;62.86;97474.26;110307;1243;69183;-71
2023/07/23 07:55:03;;;;;;;6.50;5.20;;;;;;;26.93;61.98;97471.10;110201;1241;68520;-71
2023/07/23 07:57:33;;;;;;;7.00;5.40;;;;;;;27.09;60.70;97476.49;110241;1241;59700;-70
2023/07/23 08:00:06;;;;;;;6.80;5.60;;;;;;;27.13;60.85;97479.95;110254;1243;59737;-70
2023/07/23 08:02:39;;;;;;;6.80;5.60;;;;;;;26.84;60.97;97485.26;110215;1246;71971;-70
2023/07/23 08:05:09;;;;;;;5.60;5.10;;;;;;;26.72;61.41;97481.84;110204;1242;69133;-71
2023/07/23 08:07:41;;;;;;;6.20;5.60;;;;;;;26.79;61.45;97484.45;110188;1241;69312;-70
2023/07/23 08:10:10;;;;;;;6.00;5.20;;;;;;;26.80;61.90;97488.20;110318;1242;59676;-70
2023/07/23 08:12:40;;;;;;;6.00;5.40;;;;;;;27.00;61.37;97487.20;110189;1242;59646;-71
2023/07/23 08:15:10;;;;;;;8.20;5.30;;;;;;;27.02;60.98;97487.15;110225;1242;71957;-70
2023/07/23 08:17:39;;;;;;;7.50;5.50;;;;;;;26.89;60.57;97486.27;110206;1241;69483;-68
2023/07/23 08:20:09;;;;;;;5.70;5.20;;;;;;;26.65;60.64;97478.56;110197;1250;68706;-70
2023/07/23 08:22:38;;;;;;;6.50;5.10;;;;;;;26.36;62.33;97478.09;110207;1242;59759;-69
2023/07/23 08:25:08;;;;;;;5.70;5.20;;;;;;;26.27;63.21;97477.70;110205;1242;59647;-69
2023/07/23 08:27:38;;;;;;;6.50;5.90;;;;;;;26.44;63.89;97478.79;110218;1242;72025;-71
2023/07/23 08:30:08;;;;;;;8.00;5.20;;;;;;;26.71;61.27;97478.92;110189;1242;69418;-71
2023/07/23 08:32:37;;;;;;;5.20;4.60;;;;;;;26.58;59.61;97481.64;110224;1241;69599;-70
2023/07/23 08:35:09;;;;;;;5.50;4.80;;;;;;;26.47;59.67;97480.31;110193;1242;59740;-72
2023/07/23 08:37:38;;;;;;;5.10;4.60;;;;;;;26.63;59.32;97484.76;110365;1241;59687;-70
2023/07/23 08:40:08;;;;;;;7.00;5.30;;;;;;;26.73;58.16;97485.27;110212;1242;72028;-70
2023/07/23 08:42:55;;;;;;;5.80;4.50;;;;;;;27.07;57.67;97484.83;110189;1242;69821;-70
2023/07/23 08:45:51;;;;;;;5.50;4.80;;;;;;;27.51;57.02;97479.55;110152;1242;68873;-71
2023/07/23 08:48:21;;;;;;;5.50;4.80;;;;;;;28.16;56.12;97478.30;110057;1242;59693;-70
2023/07/23 08:50:50;;;;;;;5.40;4.90;;;;;;;28.50;52.54;97483.16;110187;1241;59787;-70
2023/07/23 08:53:21;;;;;;;4.80;4.30;;;;;;;28.14;51.79;97481.31;110193;1241;72302;-70
2023/07/23 08:55:50;;;;;;;5.20;4.20;;;;;;;28.22;53.33;97486.19;110206;1243;69635;-70
2023/07/23 08:58:19;;;;;;;4.80;4.00;;;;;;;28.28;54.23;97485.23;110173;1245;69113;-71
2023/07/23 09:00:48;;;;;;;5.40;4.90;;;;;;;28.58;51.29;97485.13;110164;1242;59702;-71
2023/07/23 09:03:21;;;;;;;5.60;5.10;;;;;;;28.95;49.47;97481.80;110330;1241;59747;-71
2023/07/23 09:05:50;;;;;;;5.70;5.10;;;;;;;28.93;49.55;97483.60;110180;1241;71282;-70
2023/07/23 09:08:20;;;;;;;5.00;4.50;;;;;;;28.61;49.33;97483.80;110161;1241;69642;-70
2023/07/23 09:10:49;;;;;;;4.80;4.40;;;;;;;28.29;49.32;97480.01;110231;1241;68529;-70
2023/07/23 09:13:18;;;;;;;5.00;4.30;;;;;;;27.43;51.10;97487.11;110184;1249;59740;-71
2023/07/23 09:15:54;;;;;;;4.90;3.80;;;;;;;27.14;51.37;97482.34;110223;1248;59763;-71
2023/07/23 09:18:25;;;;;;;4.60;4.20;;;;;;;27.82;50.49;97482.34;110215;1241;71401;-70
2023/07/23 09:20:56;;;;;;;4.40;3.50;;;;;;;27.94;50.16;97482.36;110221;1243;69948;-71
2023/07/23 09:23:26;;;;;;;4.60;4.20;;;;;;;28.06;49.12;97484.48;110153;1244;68591;-71
2023/07/23 09:26:00;;;;;;;3.40;3.10;;;;;;;28.65;48.68;97484.41;110186;1241;59743;-71
2023/07/23 09:28:29;;;;;;;4.80;4.00;;;;;;;29.67;47.75;97484.21;110202;1240;59702;-71
2023/07/23 09:30:59;;;;;;;3.70;3.40;;;;;;;30.56;45.93;97481.59;110250;1243;70478;-71
2023/07/23 09:33:34;;;;;;;3.80;3.00;;;;;;;30.95;43.82;97479.98;110181;1242;68536;-71
2023/07/23 09:36:05;;;;;;;4.20;3.20;;;;;;;30.09;43.23;97479.98;110218;1242;69317;-71
2023/07/23 09:38:34;;;;;;;6.10;3.90;;;;;;;29.81;43.96;97481.70;110215;1241;59732;-71
2023/07/23 09:41:04;;;;;;;4.40;3.90;;;;;;;29.48;43.70;97476.65;110241;1241;59760;-68
2023/07/23 09:43:34;;;;;;;4.40;4.00;;;;;;;29.50;44.48;97476.65;110165;1240;72395;-73
2023/07/23 09:46:03;;;;;;;4.70;3.90;;;;;;;29.64;44.25;97480.67;110378;1241;69872;-73
2023/07/23 09:48:32;;;;;;;;;;;;;;;29.09;44.10;97480.35;110341;1243;69666;-70
2023/07/23 09:51:01;;;;;;;3.50;3.20;;;;;;;28.71;45.27;97481.75;110171;1242;59692;-71
2023/07/23 09:53:31;;;;;;;3.30;3.00;;;;;;;28.64;46.78;97486.70;110332;1241;59804;-72
2023/07/23 09:56:00;;;;;;;3.70;2.50;;;;;;;28.67;47.25;97482.64;110377;1241;71962;-72
2023/07/23 09:58:29;;;;;;;;;;;;;;;28.37;46.05;97485.35;110214;1240;69090;-69
2023/07/23 10:00:58;;;;;;;4.90;3.60;;;;;;;28.37;45.90;97484.73;110207;1245;68544;-70
2023/07/23 10:03:28;;;;;;;3.50;2.90;;;;;;;28.98;43.95;97485.04;110197;1243;59788;-70
2023/07/23 10:05:59;;;;;;;4.60;3.20;;;;;;;28.80;42.61;97479.41;110260;1242;59679;-71
2023/07/23 10:08:30;;;;;;;4.20;3.50;;;;;;;29.32;42.89;97481.55;110192;1242;71789;-69
2023/07/23 10:10:59;;;;;;;3.20;2.60;;;;;;;29.08;43.58;97472.10;110203;1241;69278;-70
2023/07/23 10:13:28;;;;;;;2.80;2.50;;;;;;;29.12;44.73;97478.27;110186;1241;69154;-70
2023/07/23 10:15:58;;;;;;;;;;;;;;;29.48;44.00;97475.63;110176;1241;59699;-69
2023/07/23 10:18:28;;;;;;;4.00;2.70;;;;;;;30.45;43.00;97469.42;110229;1242;59661;-70
2023/07/23 10:20:58;;;;;;;4.70;2.70;;;;;;;30.94;39.93;97468.41;110208;1242;72107;-72
2023/07/23 10:23:27;;;;;;;3.90;3.20;;;;;;;31.20;38.16;97471.02;110151;1240;69556;-70
2023/07/23 10:26:30;;;;;;;3.10;2.50;;;;;;;31.18;38.31;97466.45;110284;1243;69001;-71
2023/07/23 10:29:08;;;;;;;2.70;2.40;;;;;;;31.49;40.00;97460.30;109885;1241;59668;-70
2023/07/23 10:31:38;;;;;;;3.60;2.80;;;;;;;32.01;39.14;97460.53;110215;1244;59698;-70
2023/07/23 10:34:23;;;;;;;3.10;2.50;;;;;;;32.36;39.34;97458.61;110264;1248;71983;-72
2023/07/23 10:37:14;;;;;;;3.00;2.70;;;;;;;32.65;37.30;97456.63;110209;1243;68649;-70
2023/07/23 10:39:47;;;;;;;3.70;2.80;;;;;;;32.38;33.44;97452.67;110316;1240;69914;-71
2023/07/23 10:42:34;;;;;;;3.50;2.50;;;;;;;31.52;34.87;97456.09;110135;1244;59796;-70
2023/07/23 10:45:17;;;;;;;3.30;2.20;;;;;;;30.67;36.62;97458.89;110244;1245;59659;-71
2023/07/23 10:47:50;;;;;;;2.60;2.10;;;;;;;31.02;38.20;97456.42;110191;1242;70652;-69
2023/07/23 10:50:20;;;;;;;2.90;2.60;;;;;;;31.28;39.11;97455.08;110236;1240;68537;-72
2023/07/23 10:52:52;;;;;;;3.20;2.10;;;;;;;31.29;39.39;97457.74;110413;1241;69361;-72
2023/07/23 10:55:50;;;;;;;2.70;2.20;;;;;;;31.22;39.08;97456.27;110279;1241;59762;-72
2023/07/23 10:58:21;;;;;;;3.60;2.70;;;;;;;31.08;39.15;97457.34;110155;1241;59697;-72
2023/07/23 11:00:56;;;;;;;3.10;2.70;;;;;;;30.78;37.86;97451.63;110224;1242;71436;-71
2023/07/23 11:03:26;;;;;;;3.00;2.60;;;;;;;30.89;37.76;97451.64;110361;1240;68442;-72
2023/07/23 11:05:56;;;;;;;3.00;2.40;;;;;;;30.56;36.32;97449.21;110225;1242;69295;-70
2023/07/23 11:08:28;;;;;;;2.70;2.20;;;;;;;30.92;37.38;97446.99;110215;1241;59663;-69
2023/07/23 11:10:58;;;;;;;3.00;2.70;;;;;;;31.05;37.27;97444.16;110251;1242;59685;-72
2023/07/23 11:13:34;;;;;;;3.00;2.50;;;;;;;30.50;37.03;97440.33;110220;1240;72432;-71
2023/07/23 11:16:04;;;;;;;3.20;2.70;;;;;;;30.49;38.30;97437.20;110241;1249;69806;-71
2023/07/23 11:18:34;;;;;;;3.50;3.20;;;;;;;30.87;36.56;97437.61;110186;1242;69727;-71
2023/07/23 11:21:05;;;;;;;3.50;3.20;;;;;;;30.84;37.71;97433.57;110230;1242;59646;-72
2023/07/23 11:23:35;;;;;;;3.20;2.70;;;;;;;30.78;36.47;97433.89;110237;1240;59686;-72
2023/07/23 11:26:04;;;;;;;3.10;2.80;;;;;;;30.44;38.48;97433.05;110258;1242;71386;-72
2023/07/23 11:28:33;;;;;;;;;;;;;;;30.92;37.27;97430.96;110253;1242;69095;-71
2023/07/23 11:31:03;;;;;;;3.00;2.70;;;;;;;31.31;37.85;97424.67;110252;1242;68527;-72
2023/07/23 11:33:33;;;;;;;4.30;2.80;;;;;;;31.58;37.80;97422.48;110230;1242;59691;-72
2023/07/23 11:36:03;;;;;;;3.60;3.10;;;;;;;31.51;37.11;97422.75;110224;1241;59689;-72
2023/07/23 11:38:32;;;;;;;2.90;2.50;;;;;;;31.35;37.42;97423.50;110276;1240;71955;-72
2023/07/23 11:41:02;;;;;;;2.50;2.10;;;;;;;31.22;37.48;97423.33;110378;1242;68436;-73
2023/07/23 11:43:34;;;;;;;3.10;2.60;;;;;;;30.79;37.99;97426.23;110224;1242;69463;-72